createdAt,value
2023-04-16T00:00:41.565Z,95.8920
2023-04-16T00:01:49.736Z,95.7170
2023-04-16T00:02:57.821Z,95.9481
2023-04-16T00:04:06.011Z,96.1794
2023-04-16T00:05:13.780Z,96.2669
2023-04-16T00:06:21.885Z,96.4648
2023-04-16T00:07:29.912Z,96.5001
2023-04-16T00:08:37.933Z,96.5404
2023-04-16T00:09:46.036Z,96.3461
2023-04-16T00:10:54.162Z,96.0531
2023-04-16T00:12:02.180Z,96.0277
2023-04-16T00:13:10.254Z,95.8786
2023-04-16T00:14:18.303Z,96.0164
2023-04-16T00:15:26.334Z,96.1548
2023-04-16T00:16:34.700Z,96.2897
2023-04-16T00:17:42.426Z,96.7463
2023-04-16T00:18:50.628Z,97.1631
2023-04-16T00:19:58.611Z,97.2061
2023-04-16T00:21:06.693Z,96.8998
2023-04-16T00:22:14.934Z,96.5820
2023-04-16T00:23:22.707Z,96.3209
2023-04-16T00:24:30.880Z,95.9918
2023-04-16T00:25:38.932Z,95.9145
2023-04-16T00:26:46.999Z,95.9679
2023-04-16T00:27:55.137Z,96.4509
2023-04-16T00:29:03.045Z,96.5025
2023-04-16T00:30:11.278Z,96.8929
2023-04-16T00:31:19.286Z,96.8798
2023-04-16T00:32:27.233Z,96.5229
2023-04-16T00:33:35.425Z,96.2612
2023-04-16T00:34:43.354Z,96.2433
2023-04-16T00:35:51.501Z,95.9684
2023-04-16T00:36:59.582Z,96.3616
2023-04-16T00:38:07.640Z,96.6362
2023-04-16T00:39:15.684Z,96.8124
2023-04-16T00:40:23.663Z,97.1800
2023-04-16T00:41:31.835Z,97.4324
2023-04-16T00:42:40.019Z,97.0898
2023-04-16T00:43:47.925Z,96.8837
2023-04-16T00:44:56.298Z,96.7904
2023-04-16T00:46:04.132Z,96.6286
2023-04-16T00:47:12.231Z,96.5918
2023-04-16T00:48:20.227Z,96.3546
2023-04-16T00:49:28.475Z,96.0389
2023-04-16T00:50:36.343Z,96.1315
2023-04-16T00:51:44.593Z,96.3414
2023-04-16T00:52:52.433Z,96.6067
2023-04-16T00:54:00.547Z,96.9777
2023-04-16T00:55:08.595Z,96.9767
2023-04-16T00:56:17.791Z,96.6661
2023-04-16T00:57:24.763Z,96.4723
2023-04-16T00:58:32.802Z,96.2873
2023-04-16T00:59:40.825Z,96.4061
2023-04-16T01:00:49.039Z,96.2161
2023-04-16T01:01:57.202Z,96.0954
2023-04-16T01:03:05.276Z,96.1711
2023-04-16T01:04:13.220Z,96.1296
2023-04-16T01:05:21.029Z,96.1393
2023-04-16T01:06:29.229Z,96.4802
2023-04-16T01:07:37.358Z,97.0959
2023-04-16T01:08:45.567Z,97.1540
2023-04-16T01:09:53.435Z,96.9825
2023-04-16T01:11:01.485Z,96.7584
2023-04-16T01:12:09.443Z,96.6713
2023-04-16T01:13:17.609Z,96.4722
2023-04-16T01:14:25.752Z,96.1691
2023-04-16T01:15:33.782Z,96.0400
2023-04-16T01:16:41.997Z,96.4979
2023-04-16T01:17:49.894Z,96.4746
2023-04-16T01:18:57.977Z,96.3043
2023-04-16T01:20:06.018Z,96.0976
2023-04-16T01:21:14.035Z,96.7951
2023-04-16T01:22:22.163Z,97.6365
2023-04-16T01:23:30.136Z,97.6665
2023-04-16T01:24:38.248Z,97.2302
2023-04-16T01:25:46.440Z,96.9912
2023-04-16T01:26:54.387Z,97.0098
2023-04-16T01:28:02.466Z,96.6885
2023-04-16T01:29:10.741Z,96.7054
2023-04-16T01:30:18.653Z,96.8715
2023-04-16T01:31:26.841Z,96.9849
2023-04-16T01:32:34.740Z,97.1977
2023-04-16T01:33:42.633Z,97.2998
2023-04-16T01:34:50.847Z,96.9294
2023-04-16T01:35:58.896Z,97.1457
2023-04-16T01:37:06.877Z,97.0854
2023-04-16T01:38:15.047Z,96.9086
2023-04-16T01:39:23.050Z,96.8932
2023-04-16T01:40:31.138Z,97.2165
2023-04-16T01:41:39.261Z,97.4400
2023-04-16T01:42:47.339Z,97.3909
2023-04-16T01:43:55.334Z,97.3769
2023-04-16T01:45:03.562Z,97.4675
2023-04-16T01:46:11.758Z,97.5505
2023-04-16T01:47:19.548Z,97.4714
2023-04-16T01:48:27.475Z,97.5053
2023-04-16T01:49:35.634Z,98.1065
2023-04-16T01:50:43.807Z,97.8759
2023-04-16T01:51:51.784Z,97.2308
2023-04-16T01:52:59.812Z,96.9488
2023-04-16T01:54:07.796Z,96.6521
2023-04-16T01:55:15.971Z,96.3827
2023-04-16T01:56:24.061Z,96.2996
2023-04-16T01:57:32.052Z,96.4897
2023-04-16T01:58:40.132Z,96.6084
2023-04-16T01:59:48.088Z,97.0236
2023-04-16T02:00:56.327Z,96.7149
2023-04-16T02:02:04.369Z,96.4118
2023-04-16T02:03:12.588Z,96.6120
2023-04-16T02:04:20.469Z,96.8137
2023-04-16T02:05:28.423Z,96.6209
2023-04-16T02:06:36.554Z,96.3600
2023-04-16T02:07:44.705Z,96.2354
2023-04-16T02:08:52.674Z,95.8973
2023-04-16T02:10:00.780Z,95.5568
2023-04-16T02:11:08.765Z,95.6638
2023-04-16T02:12:16.765Z,95.4865
2023-04-16T02:13:24.937Z,95.6015
2023-04-16T02:14:33.127Z,95.4431
2023-04-16T02:15:41.168Z,95.4023
2023-04-16T02:16:49.128Z,95.4414
2023-04-16T02:17:57.291Z,95.9354
2023-04-16T02:19:05.284Z,96.1292
2023-04-16T02:20:13.332Z,96.2313
2023-04-16T02:21:21.404Z,96.6384
2023-04-16T02:22:29.388Z,96.2957
2023-04-16T02:23:37.513Z,96.0762
2023-04-16T02:24:45.717Z,95.7790
2023-04-16T02:25:53.717Z,95.7587
2023-04-16T02:27:01.754Z,95.6797
2023-04-16T02:28:09.844Z,95.5578
2023-04-16T02:29:17.855Z,95.4427
2023-04-16T02:30:25.935Z,95.1942
2023-04-16T02:31:33.989Z,95.1865
2023-04-16T02:32:42.154Z,95.3074
2023-04-16T02:33:50.137Z,95.6849
2023-04-16T02:34:58.028Z,95.8777
2023-04-16T02:36:06.193Z,96.1170
2023-04-16T02:37:14.273Z,95.8403
2023-04-16T02:38:22.356Z,95.7767
2023-04-16T02:39:30.444Z,95.8213
2023-04-16T02:40:38.530Z,95.8365
2023-04-16T02:41:46.564Z,96.1150
2023-04-16T02:42:54.610Z,96.0678
2023-04-16T02:44:02.696Z,96.2232
2023-04-16T02:45:10.851Z,96.4397
2023-04-16T02:46:18.878Z,96.7105
2023-04-16T02:47:26.976Z,96.7226
2023-04-16T02:48:34.818Z,96.5057
2023-04-16T02:49:42.993Z,96.7849
2023-04-16T02:50:51.066Z,96.5419
2023-04-16T02:51:59.145Z,96.1622
2023-04-16T02:53:07.184Z,96.0593
2023-04-16T02:54:15.125Z,96.1640
2023-04-16T02:55:23.309Z,96.3983
2023-04-16T02:56:31.423Z,96.4673
2023-04-16T02:57:39.437Z,96.2275
2023-04-16T02:58:47.528Z,96.3346
2023-04-16T02:59:55.574Z,96.1266
2023-04-16T03:01:03.667Z,95.8831
2023-04-16T03:02:11.960Z,95.6124
2023-04-16T03:03:19.818Z,95.5062
2023-04-16T03:04:28.055Z,95.4557
2023-04-16T03:05:35.744Z,95.2419
2023-04-16T03:06:43.969Z,95.2830
2023-04-16T03:07:52.057Z,95.6191
2023-04-16T03:09:00.067Z,95.7092
2023-04-16T03:10:08.123Z,95.6777
2023-04-16T03:11:16.582Z,95.8364
2023-04-16T03:12:24.272Z,95.9280
2023-04-16T03:13:32.334Z,96.3447
2023-04-16T03:14:40.372Z,96.4196
2023-04-16T03:15:48.466Z,96.4202
2023-04-16T03:16:56.460Z,96.3994
2023-04-16T03:18:04.447Z,96.1423
2023-04-16T03:19:12.693Z,96.0472
2023-04-16T03:20:20.620Z,96.1444
2023-04-16T03:21:28.702Z,96.0657
2023-04-16T03:22:36.858Z,96.1450
2023-04-16T03:23:44.984Z,96.6611
2023-04-16T03:24:53.061Z,97.0823
2023-04-16T03:26:00.983Z,96.9854
2023-04-16T03:27:09.083Z,96.8855
2023-04-16T03:28:17.134Z,97.3527
2023-04-16T03:29:25.212Z,97.5965
2023-04-16T03:30:33.363Z,97.3989
2023-04-16T03:31:41.427Z,97.5576
2023-04-16T03:32:49.384Z,97.4155
2023-04-16T03:33:57.504Z,97.1983
2023-04-16T03:35:05.488Z,97.5391
2023-04-16T03:36:13.675Z,97.2063
2023-04-16T03:37:21.799Z,96.7228
2023-04-16T03:38:29.719Z,96.7006
2023-04-16T03:39:37.742Z,97.0704
2023-04-16T03:40:45.813Z,96.9085
2023-04-16T03:41:53.933Z,96.9528
2023-04-16T03:43:01.835Z,97.2036
2023-04-16T03:44:10.005Z,97.4876
2023-04-16T03:45:18.146Z,97.6608
2023-04-16T03:46:26.146Z,98.0716
2023-04-16T03:47:34.416Z,98.0384
2023-04-16T03:48:42.129Z,97.9698
2023-04-16T03:49:50.329Z,97.5069
2023-04-16T03:50:58.349Z,97.2457
2023-04-16T03:52:06.479Z,97.3726
2023-04-16T03:53:14.576Z,97.2756
2023-04-16T03:54:23.075Z,97.0209
2023-04-16T03:55:30.619Z,96.8550
2023-04-16T03:56:38.841Z,97.4178
2023-04-16T03:57:46.732Z,97.4837
2023-04-16T03:58:54.883Z,97.3276
2023-04-16T04:00:02.741Z,96.8431
2023-04-16T04:01:11.166Z,96.7046
2023-04-16T04:02:19.138Z,96.7626
2023-04-16T04:03:27.385Z,96.6938
2023-04-16T04:04:35.395Z,96.9325
2023-04-16T04:05:43.062Z,97.2364
2023-04-16T04:06:51.285Z,97.3400
2023-04-16T04:07:59.574Z,97.1196
2023-04-16T04:09:07.408Z,97.0181
2023-04-16T04:10:15.527Z,97.0080
2023-04-16T04:11:23.344Z,96.8474
2023-04-16T04:12:31.526Z,96.8934
2023-04-16T04:13:39.725Z,96.7489
2023-04-16T04:14:47.656Z,96.5782
2023-04-16T04:15:55.866Z,97.0099
2023-04-16T04:17:03.800Z,97.6500
2023-04-16T04:18:11.749Z,97.4799
2023-04-16T04:19:19.911Z,97.2916
2023-04-16T04:20:28.091Z,97.0694
2023-04-16T04:21:36.138Z,97.2918
2023-04-16T04:22:44.145Z,97.1032
2023-04-16T04:23:52.328Z,97.0217
2023-04-16T04:25:00.482Z,97.3626
2023-04-16T04:26:08.348Z,97.2124
2023-04-16T04:27:16.525Z,96.9643
2023-04-16T04:28:24.481Z,96.9270
2023-04-16T04:29:32.631Z,96.4363
2023-04-16T04:30:40.597Z,96.3666
2023-04-16T04:31:48.628Z,96.3306
2023-04-16T04:32:57.119Z,96.4443
2023-04-16T04:34:04.731Z,96.9402
2023-04-16T04:35:12.817Z,97.0887
2023-04-16T04:36:20.852Z,97.5457
2023-04-16T04:37:28.937Z,97.6074
2023-04-16T04:38:37.024Z,97.3379
2023-04-16T04:39:45.085Z,96.9189
2023-04-16T04:40:53.187Z,96.7823
2023-04-16T04:42:01.195Z,97.1327
2023-04-16T04:43:09.261Z,97.6463
2023-04-16T04:44:17.404Z,97.4398
2023-04-16T04:45:25.538Z,96.6826
2023-04-16T04:46:33.480Z,96.4241
2023-04-16T04:47:41.540Z,96.3274
2023-04-16T04:48:49.482Z,96.7319
2023-04-16T04:49:57.794Z,96.8319
2023-04-16T04:51:05.729Z,96.6677
2023-04-16T04:52:13.692Z,96.6575
2023-04-16T04:53:21.869Z,96.3413
2023-04-16T04:54:29.931Z,96.4508
2023-04-16T04:55:38.075Z,96.8882
2023-04-16T04:56:46.064Z,97.1138
2023-04-16T04:57:54.108Z,97.0095
2023-04-16T04:59:02.203Z,96.6705
2023-04-16T05:00:10.106Z,96.5371
2023-04-16T05:01:18.553Z,96.1327
2023-04-16T05:02:26.499Z,95.9700
2023-04-16T05:03:34.479Z,95.6874
2023-04-16T05:04:42.515Z,95.7184
2023-04-16T05:05:50.457Z,95.6427
2023-04-16T05:06:58.683Z,95.5811
2023-04-16T05:08:06.691Z,95.4281
2023-04-16T05:09:14.819Z,95.3885
2023-04-16T05:10:22.825Z,95.3986
2023-04-16T05:11:30.768Z,95.6211
2023-04-16T05:12:38.990Z,96.2569
2023-04-16T05:13:47.026Z,96.7907
2023-04-16T05:14:55.108Z,96.5623
2023-04-16T05:16:03.116Z,96.4491
2023-04-16T05:17:11.104Z,96.1517
2023-04-16T05:18:19.322Z,96.0808
2023-04-16T05:19:27.559Z,96.1352
2023-04-16T05:20:35.381Z,96.0831
2023-04-16T05:21:43.465Z,96.0749
2023-04-16T05:22:51.431Z,96.0357
2023-04-16T05:23:59.488Z,96.5214
2023-04-16T05:25:07.633Z,96.2834
2023-04-16T05:26:15.749Z,96.0413
2023-04-16T05:27:23.749Z,95.8925
2023-04-16T05:28:31.963Z,95.8922
2023-04-16T05:29:39.954Z,95.7615
2023-04-16T05:30:48.012Z,95.8458
2023-04-16T05:31:55.929Z,95.9969
2023-04-16T05:33:04.103Z,96.3561
2023-04-16T05:34:12.255Z,96.8745
2023-04-16T05:35:20.332Z,97.2350
2023-04-16T05:36:28.285Z,97.1934
2023-04-16T05:37:36.387Z,97.1257
2023-04-16T05:38:44.424Z,96.8140
2023-04-16T05:39:52.482Z,96.3131
2023-04-16T05:41:00.562Z,95.9166
2023-04-16T05:42:08.629Z,95.3551
2023-04-16T05:43:16.669Z,95.4997
2023-04-16T05:44:24.846Z,96.2267
2023-04-16T05:45:32.863Z,96.2834
2023-04-16T05:46:41.041Z,96.1851
2023-04-16T05:47:48.907Z,96.3536
2023-04-16T05:48:56.889Z,96.3303
2023-04-16T05:50:05.016Z,95.8512
2023-04-16T05:51:13.340Z,95.6687
2023-04-16T05:52:21.278Z,95.7190
2023-04-16T05:53:29.349Z,95.7562
2023-04-16T05:54:37.281Z,95.9662
2023-04-16T05:55:45.213Z,95.8819
2023-04-16T05:56:53.431Z,95.5023
2023-04-16T05:58:01.515Z,95.2618
2023-04-16T05:59:09.711Z,95.4339
2023-04-16T06:00:17.429Z,95.1163
2023-04-16T06:01:25.593Z,94.8958
2023-04-16T06:02:33.862Z,95.7800
2023-04-16T06:03:42.003Z,95.7997
2023-04-16T06:04:49.976Z,95.9042
2023-04-16T06:05:57.993Z,96.1651
2023-04-16T06:07:05.950Z,96.1398
2023-04-16T06:08:14.067Z,95.6710
2023-04-16T06:09:22.134Z,95.4881
2023-04-16T06:10:30.144Z,95.6679
2023-04-16T06:11:38.206Z,95.7586
2023-04-16T06:12:46.283Z,95.3335
2023-04-16T06:13:54.343Z,95.3128
2023-04-16T06:15:02.522Z,95.6052
2023-04-16T06:16:10.495Z,95.7765
2023-04-16T06:17:18.534Z,95.7839
2023-04-16T06:18:26.679Z,96.5273
2023-04-16T06:19:34.908Z,96.6605
2023-04-16T06:20:42.619Z,96.4627
2023-04-16T06:21:50.762Z,96.3755
2023-04-16T06:22:58.859Z,96.4616
2023-04-16T06:24:06.889Z,96.5672
2023-04-16T06:25:16.965Z,96.4709
2023-04-16T06:26:27.786Z,96.5703
2023-04-16T06:27:35.941Z,96.5769
2023-04-16T06:28:43.999Z,96.0245
2023-04-16T06:29:52.185Z,96.1777
2023-04-16T06:31:00.184Z,96.2089
2023-04-16T06:32:08.108Z,96.2608
2023-04-16T06:33:16.117Z,95.9479
2023-04-16T06:34:24.272Z,95.9178
2023-04-16T06:35:32.364Z,95.5668
2023-04-16T06:36:40.426Z,95.5908
2023-04-16T06:37:48.611Z,95.6458
2023-04-16T06:38:56.765Z,96.6507
2023-04-16T06:40:04.623Z,96.7969
2023-04-16T06:41:12.965Z,96.7081
2023-04-16T06:42:20.724Z,96.4750
2023-04-16T06:43:28.846Z,96.1827
2023-04-16T06:44:36.863Z,95.8880
2023-04-16T06:45:44.936Z,95.5590
2023-04-16T06:46:53.008Z,96.1306
2023-04-16T06:48:01.233Z,96.5046
2023-04-16T06:49:09.391Z,96.8393
2023-04-16T06:50:17.183Z,97.1716
2023-04-16T06:51:25.260Z,97.1615
2023-04-16T06:52:33.190Z,97.1368
2023-04-16T06:53:41.347Z,96.9587
2023-04-16T06:54:49.528Z,96.5719
2023-04-16T06:55:57.519Z,96.2837
2023-04-16T06:57:05.590Z,96.2670
2023-04-16T06:58:13.495Z,96.2446
2023-04-16T06:59:21.686Z,96.3587
2023-04-16T07:00:29.799Z,96.4382
2023-04-16T07:01:37.778Z,96.3996
2023-04-16T07:02:45.934Z,96.3395
2023-04-16T07:03:54.092Z,96.2745
2023-04-16T07:05:01.953Z,96.4297
2023-04-16T07:06:10.118Z,96.3080
2023-04-16T07:07:18.255Z,96.3949
2023-04-16T07:08:26.445Z,96.4497
2023-04-16T07:09:34.105Z,96.7953
2023-04-16T07:10:42.311Z,97.3005
2023-04-16T07:11:50.422Z,97.6352
2023-04-16T07:12:58.485Z,97.5798
2023-04-16T07:14:06.521Z,97.3906
2023-04-16T07:15:14.773Z,97.0494
2023-04-16T07:16:22.795Z,96.8088
2023-04-16T07:17:30.795Z,96.5730
2023-04-16T07:18:38.788Z,96.6775
2023-04-16T07:19:46.787Z,96.6637
2023-04-16T07:20:54.883Z,96.4842
2023-04-16T07:22:03.007Z,96.1456
2023-04-16T07:23:11.123Z,96.5917
2023-04-16T07:24:18.937Z,97.0445
2023-04-16T07:25:27.131Z,96.7543
2023-04-16T07:26:35.291Z,96.9357
2023-04-16T07:27:43.261Z,96.8293
2023-04-16T07:28:51.410Z,96.7066
2023-04-16T07:29:59.257Z,96.5278
2023-04-16T07:31:07.593Z,96.2209
2023-04-16T07:32:15.962Z,96.3769
2023-04-16T07:33:23.659Z,96.5350
2023-04-16T07:34:31.789Z,96.2821
2023-04-16T07:35:39.674Z,96.1807
2023-04-16T07:36:47.718Z,95.9945
2023-04-16T07:37:55.954Z,95.9300
2023-04-16T07:39:03.989Z,96.2290
2023-04-16T07:40:12.052Z,96.1758
2023-04-16T07:41:20.214Z,96.2883
2023-04-16T07:42:28.128Z,96.5251
2023-04-16T07:43:36.228Z,96.9256
2023-04-16T07:44:44.267Z,96.9693
2023-04-16T07:45:52.454Z,97.2008
2023-04-16T07:47:00.457Z,97.5514
2023-04-16T07:48:08.325Z,97.1186
2023-04-16T07:49:16.562Z,97.0048
2023-04-16T07:50:24.470Z,96.4844
2023-04-16T07:51:32.824Z,96.2102
2023-04-16T07:52:40.666Z,95.9764
2023-04-16T07:53:48.655Z,96.5156
2023-04-16T07:54:56.883Z,96.2873
2023-04-16T07:56:04.778Z,96.7041
2023-04-16T07:57:12.995Z,97.0540
2023-04-16T07:58:21.049Z,96.9809
2023-04-16T07:59:29.468Z,96.9000
2023-04-16T08:00:37.015Z,96.8573
2023-04-16T08:01:45.072Z,96.9399
2023-04-16T08:02:53.389Z,96.9509
2023-04-16T08:04:01.432Z,97.0884
2023-04-16T08:05:09.435Z,96.9439
2023-04-16T08:06:17.463Z,96.8465
2023-04-16T08:07:25.397Z,96.7703
2023-04-16T08:08:33.632Z,96.5633
2023-04-16T08:09:41.679Z,96.6333
2023-04-16T08:10:49.816Z,96.4064
2023-04-16T08:11:57.832Z,96.1554
2023-04-16T08:13:05.841Z,95.9913
2023-04-16T08:14:13.943Z,95.9014
2023-04-16T08:15:21.952Z,95.9384
2023-04-16T08:16:29.957Z,96.1793
2023-04-16T08:17:38.132Z,96.1637
2023-04-16T08:18:45.976Z,96.0526
2023-04-16T08:19:54.103Z,96.0204
2023-04-16T08:21:02.359Z,95.8416
2023-04-16T08:22:10.337Z,95.7856
2023-04-16T08:23:18.366Z,95.6843
2023-04-16T08:24:26.462Z,95.9751
2023-04-16T08:25:34.546Z,96.0623
2023-04-16T08:26:42.558Z,95.9910
2023-04-16T08:27:50.580Z,95.8837
2023-04-16T08:28:58.733Z,95.9757
2023-04-16T08:30:06.755Z,95.8734
2023-04-16T08:31:14.792Z,96.0541
2023-04-16T08:32:22.874Z,96.4445
2023-04-16T08:33:30.787Z,96.4380
2023-04-16T08:34:39.246Z,96.1024
2023-04-16T08:35:47.007Z,95.5123
2023-04-16T08:36:55.164Z,95.5454
2023-04-16T08:38:03.156Z,95.3499
2023-04-16T08:39:11.295Z,95.3042
2023-04-16T08:40:19.301Z,95.1454
2023-04-16T08:41:27.601Z,95.2648
2023-04-16T08:42:35.416Z,95.1298
2023-04-16T08:43:43.448Z,95.0260
2023-04-16T08:44:51.505Z,95.0900
2023-04-16T08:45:59.536Z,95.3305
2023-04-16T08:47:07.673Z,95.5737
2023-04-16T08:48:15.850Z,95.8668
2023-04-16T08:49:23.775Z,96.2329
2023-04-16T08:50:31.709Z,96.4721
2023-04-16T08:51:39.904Z,96.5183
2023-04-16T08:52:47.949Z,96.4076
2023-04-16T08:53:56.234Z,96.3699
2023-04-16T08:55:04.063Z,95.9641
2023-04-16T08:56:12.099Z,95.7577
2023-04-16T08:57:20.167Z,95.9269
2023-04-16T08:58:28.227Z,96.2026
2023-04-16T08:59:36.330Z,96.2747
2023-04-16T09:00:44.343Z,96.2961
2023-04-16T09:01:52.474Z,96.4096
2023-04-16T09:03:00.412Z,96.6118
2023-04-16T09:04:08.715Z,96.3432
2023-04-16T09:05:16.480Z,96.0839
2023-04-16T09:06:24.725Z,96.2838
2023-04-16T09:07:32.840Z,96.5218
2023-04-16T09:08:40.996Z,96.4267
2023-04-16T09:09:48.845Z,96.4946
2023-04-16T09:10:56.800Z,96.4097
2023-04-16T09:12:04.942Z,96.1517
2023-04-16T09:13:13.165Z,95.7652
2023-04-16T09:14:21.042Z,95.8749
2023-04-16T09:15:29.130Z,95.7867
2023-04-16T09:16:37.412Z,95.5991
2023-04-16T09:17:45.307Z,95.5794
2023-04-16T09:18:53.283Z,95.7809
2023-04-16T09:20:01.453Z,96.0396
2023-04-16T09:21:09.378Z,96.1509
2023-04-16T09:22:17.526Z,96.3710
2023-04-16T09:23:25.535Z,96.3440
2023-04-16T09:24:33.718Z,96.0729
2023-04-16T09:25:41.530Z,95.9559
2023-04-16T09:26:49.719Z,96.3021
2023-04-16T09:27:57.852Z,96.3833
2023-04-16T09:29:05.824Z,96.2481
2023-04-16T09:30:13.882Z,95.9061
2023-04-16T09:31:21.984Z,96.0252
2023-04-16T09:32:30.041Z,95.9611
2023-04-16T09:33:38.111Z,95.5052
2023-04-16T09:34:46.005Z,95.4003
2023-04-16T09:35:54.249Z,95.6813
2023-04-16T09:37:02.139Z,95.7521
2023-04-16T09:38:10.302Z,96.0067
2023-04-16T09:39:18.435Z,96.1792
2023-04-16T09:40:26.540Z,96.2645
2023-04-16T09:41:34.501Z,96.3058
2023-04-16T09:42:42.431Z,95.9999
2023-04-16T09:43:50.622Z,95.9323
2023-04-16T09:45:00.820Z,95.7911
2023-04-16T09:46:11.645Z,95.7390
2023-04-16T09:47:19.677Z,95.8157
2023-04-16T09:48:27.698Z,95.9011
2023-04-16T09:49:35.801Z,96.0080
2023-04-16T09:50:43.873Z,95.9381
2023-04-16T09:51:51.890Z,96.1079
2023-04-16T09:52:59.945Z,95.7186
2023-04-16T09:54:08.089Z,95.4384
2023-04-16T09:55:16.074Z,95.4767
2023-04-16T09:56:24.192Z,95.5901
2023-04-16T09:57:32.253Z,95.4563
2023-04-16T09:58:40.226Z,95.4239
2023-04-16T09:59:48.322Z,95.1657
2023-04-16T10:00:56.421Z,94.8635
2023-04-16T10:02:14.343Z,95.0830
2023-04-16T10:03:17.311Z,95.3136
2023-04-16T10:04:25.429Z,95.0579
2023-04-16T10:05:33.549Z,94.9514
2023-04-16T10:06:41.611Z,95.1360
2023-04-16T10:07:49.670Z,95.8058
2023-04-16T10:08:57.839Z,95.7002
2023-04-16T10:10:05.721Z,95.3587
2023-04-16T10:11:13.901Z,95.1335
2023-04-16T10:12:21.820Z,95.0650
2023-04-16T10:13:29.941Z,95.2121
2023-04-16T10:14:37.925Z,95.3626
2023-04-16T10:15:45.906Z,95.2870
2023-04-16T10:16:54.169Z,95.3322
2023-04-16T10:18:02.216Z,95.1110
2023-04-16T10:19:10.418Z,95.0721
2023-04-16T10:20:18.340Z,95.4274
2023-04-16T10:21:26.474Z,95.8577
2023-04-16T10:22:34.392Z,95.6726
2023-04-16T10:23:42.480Z,95.6554
2023-04-16T10:24:50.560Z,95.5306
2023-04-16T10:25:58.588Z,95.7162
2023-04-16T10:27:06.653Z,95.8207
2023-04-16T10:28:14.689Z,95.4996
2023-04-16T10:29:22.641Z,95.6449
2023-04-16T10:30:30.866Z,95.6341
2023-04-16T10:31:38.896Z,95.8050
2023-04-16T10:32:46.936Z,95.5277
2023-04-16T10:33:55.045Z,95.7004
2023-04-16T10:35:03.099Z,95.7112
2023-04-16T10:36:11.411Z,95.6928
2023-04-16T10:37:19.129Z,95.5166
2023-04-16T10:38:27.270Z,95.2814
2023-04-16T10:39:35.318Z,94.9665
2023-04-16T10:40:43.231Z,94.7351
2023-04-16T10:41:51.431Z,94.8166
2023-04-16T10:42:59.508Z,95.0319
2023-04-16T10:44:07.569Z,95.4767
2023-04-16T10:45:15.591Z,95.9779
2023-04-16T10:46:23.777Z,95.9053
2023-04-16T10:47:31.892Z,95.8391
2023-04-16T10:48:49.924Z,95.4588
2023-04-16T10:49:52.728Z,95.5639
2023-04-16T10:51:00.764Z,96.0391
2023-04-16T10:52:08.864Z,95.7467
2023-04-16T10:53:16.908Z,95.1730
2023-04-16T10:54:24.951Z,94.9994
2023-04-16T10:55:32.875Z,95.1552
2023-04-16T10:56:41.178Z,95.1869
2023-04-16T10:57:49.157Z,95.4283
2023-04-16T10:58:57.244Z,95.6538
2023-04-16T11:00:05.099Z,95.5697
2023-04-16T11:01:13.434Z,96.1180
2023-04-16T11:02:21.548Z,96.1649
2023-04-16T11:03:29.492Z,95.5466
2023-04-16T11:04:37.704Z,95.0839
2023-04-16T11:05:45.521Z,95.2358
2023-04-16T11:06:53.462Z,95.8106
2023-04-16T11:08:01.647Z,95.6678
2023-04-16T11:09:09.907Z,95.9756
2023-04-16T11:10:17.803Z,95.9891
2023-04-16T11:11:25.774Z,95.8810
2023-04-16T11:12:33.854Z,95.9714
2023-04-16T11:13:43.501Z,96.0128
2023-04-16T11:14:49.919Z,96.3782
2023-04-16T11:15:58.113Z,96.5302
2023-04-16T11:17:06.092Z,95.7843
2023-04-16T11:18:14.179Z,95.7543
2023-04-16T11:19:22.085Z,95.5794
2023-04-16T11:20:30.273Z,95.4615
2023-04-16T11:21:38.389Z,94.9463
2023-04-16T11:22:46.420Z,94.7535
2023-04-16T11:23:54.336Z,95.5012
2023-04-16T11:25:02.513Z,95.7955
2023-04-16T11:26:10.613Z,95.4281
2023-04-16T11:27:18.562Z,95.1496
2023-04-16T11:28:26.833Z,94.9738
2023-04-16T11:29:34.781Z,94.5984
2023-04-16T11:30:42.820Z,94.3973
2023-04-16T11:31:50.997Z,94.3309
2023-04-16T11:32:59.035Z,94.5448
2023-04-16T11:34:07.027Z,94.6219
2023-04-16T11:35:15.072Z,94.2394
2023-04-16T11:36:24.794Z,94.4842
2023-04-16T11:37:36.085Z,94.4546
2023-04-16T11:38:44.187Z,94.3771
2023-04-16T11:39:52.281Z,94.4017
2023-04-16T11:41:00.311Z,93.8960
2023-04-16T11:42:08.412Z,93.6869
2023-04-16T11:43:16.525Z,94.0273
2023-04-16T11:44:24.548Z,93.9129
2023-04-16T11:45:32.684Z,93.9431
2023-04-16T11:46:40.724Z,94.0347
2023-04-16T11:47:48.736Z,94.2802
2023-04-16T11:48:57.006Z,94.3158
2023-04-16T11:50:04.919Z,95.2304
2023-04-16T11:51:12.739Z,95.7938
2023-04-16T11:52:20.950Z,95.2624
2023-04-16T11:53:29.045Z,94.6344
2023-04-16T11:54:37.001Z,94.0688
2023-04-16T11:55:45.183Z,94.2103
2023-04-16T11:56:53.164Z,94.2928
2023-04-16T11:58:01.259Z,94.6288
2023-04-16T11:59:09.539Z,94.7053
2023-04-16T12:00:17.237Z,94.6793
2023-04-16T12:01:25.455Z,94.1103
2023-04-16T12:02:33.616Z,93.9347
2023-04-16T12:03:41.847Z,93.7849
2023-04-16T12:04:49.578Z,93.8794
2023-04-16T12:05:57.649Z,93.2641
2023-04-16T12:07:05.764Z,93.0229
2023-04-16T12:08:13.639Z,93.1543
2023-04-16T12:09:21.838Z,93.8733
2023-04-16T12:10:29.859Z,94.4593
2023-04-16T12:11:37.973Z,94.8782
2023-04-16T12:12:46.194Z,94.5160
2023-04-16T12:13:54.051Z,94.5270
2023-04-16T12:15:02.126Z,95.0042
2023-04-16T12:16:10.225Z,94.9963
2023-04-16T12:17:18.275Z,94.5188
2023-04-16T12:18:26.361Z,94.4495
2023-04-16T12:19:34.378Z,94.2562
2023-04-16T12:20:42.437Z,93.7699
2023-04-16T12:21:50.517Z,93.2868
2023-04-16T12:22:58.498Z,93.5077
2023-04-16T12:24:06.648Z,93.6575
2023-04-16T12:25:14.579Z,93.2672
2023-04-16T12:26:22.777Z,92.9535
2023-04-16T12:27:30.786Z,92.5897
2023-04-16T12:28:38.815Z,92.3378
2023-04-16T12:29:46.952Z,92.4918
2023-04-16T12:30:54.974Z,93.0860
2023-04-16T12:32:03.016Z,93.4032
2023-04-16T12:33:11.147Z,93.7949
2023-04-16T12:34:19.003Z,93.7500
2023-04-16T12:35:27.252Z,93.6048
2023-04-16T12:36:35.235Z,93.4826
2023-04-16T12:37:43.307Z,93.0620
2023-04-16T12:38:51.376Z,93.1842
2023-04-16T12:39:59.572Z,93.0714
2023-04-16T12:41:07.532Z,92.8679
2023-04-16T12:42:15.561Z,92.3746
2023-04-16T12:43:23.620Z,91.9446
2023-04-16T12:44:31.669Z,92.0341
2023-04-16T12:45:39.725Z,92.4456
2023-04-16T12:46:47.895Z,92.9061
2023-04-16T12:47:55.970Z,92.7471
2023-04-16T12:49:04.029Z,93.2347
2023-04-16T12:50:11.930Z,93.7449
2023-04-16T12:51:20.049Z,93.3888
2023-04-16T12:52:28.146Z,93.2441
2023-04-16T12:53:36.168Z,93.3798
2023-04-16T12:54:44.207Z,93.4556
2023-04-16T12:55:52.260Z,93.7069
2023-04-16T12:57:00.464Z,93.2127
2023-04-16T12:58:09.775Z,93.3339
2023-04-16T12:59:16.322Z,93.8943
2023-04-16T13:00:24.491Z,93.7654
2023-04-16T13:01:32.578Z,93.9643
2023-04-16T13:02:40.829Z,94.4693
2023-04-16T13:03:48.924Z,94.4893
2023-04-16T13:04:56.706Z,93.9856
2023-04-16T13:06:04.679Z,93.3309
2023-04-16T13:07:13.021Z,92.9671
2023-04-16T13:08:20.932Z,93.1041
2023-04-16T13:09:29.084Z,92.6181
2023-04-16T13:10:37.035Z,93.0673
2023-04-16T13:11:45.108Z,93.7437
2023-04-16T13:12:53.221Z,93.6305
2023-04-16T13:14:01.189Z,93.5408
2023-04-16T13:15:09.304Z,93.8270
2023-04-16T13:16:17.393Z,93.9005
2023-04-16T13:17:25.269Z,93.7564
2023-04-16T13:18:33.563Z,93.9078
2023-04-16T13:19:41.493Z,93.4616
2023-04-16T13:20:49.577Z,93.1242
2023-04-16T13:21:57.585Z,92.7935
2023-04-16T13:23:05.630Z,92.6078
2023-04-16T13:24:13.721Z,92.6329
2023-04-16T13:25:21.643Z,92.1094
2023-04-16T13:26:29.862Z,91.7834
2023-04-16T13:27:37.899Z,92.5451
2023-04-16T13:28:46.071Z,92.2817
2023-04-16T13:29:53.958Z,92.2412
2023-04-16T13:31:05.064Z,92.2219
2023-04-16T13:32:14.894Z,92.2383
2023-04-16T13:33:23.032Z,92.7475
2023-04-16T13:34:31.075Z,93.7816
2023-04-16T13:35:39.069Z,94.8533
2023-04-16T13:36:47.138Z,94.6870
2023-04-16T13:37:55.283Z,93.8352
2023-04-16T13:39:03.284Z,93.7927
2023-04-16T13:40:11.412Z,93.8285
2023-04-16T13:41:19.458Z,94.0433
2023-04-16T13:42:27.473Z,94.0532
2023-04-16T13:43:35.578Z,93.6352